createdAt,value
2023-03-12T00:02:22.492Z,24.23
2023-03-12T00:04:50.200Z,20.77
2023-03-12T00:07:17.976Z,20.23
2023-03-12T00:09:45.779Z,12.50
2023-03-12T00:12:13.451Z,8.70
2023-03-12T00:14:41.094Z,9.43
2023-03-12T00:17:10.121Z,5.73
2023-03-12T00:19:37.842Z,12.03
2023-03-12T00:22:05.602Z,7.23
2023-03-12T00:24:33.273Z,8.30
2023-03-12T00:27:00.926Z,7.57
2023-03-12T00:29:28.665Z,8.27
2023-03-12T00:31:56.382Z,10.07
2023-03-12T00:34:25.412Z,8.03
2023-03-12T00:36:53.078Z,7.43
2023-03-12T00:39:20.976Z,8.13
2023-03-12T00:41:48.620Z,10.07
2023-03-12T00:44:16.339Z,8.07
2023-03-12T00:46:44.068Z,9.13
2023-03-12T00:49:12.397Z,9.90
2023-03-12T00:51:41.469Z,7.32
2023-03-12T00:54:09.153Z,10.30
2023-03-12T00:56:36.816Z,9.73
2023-03-12T00:59:04.422Z,8.13
2023-03-12T01:01:32.066Z,9.80
2023-03-12T01:03:59.956Z,10.87
2023-03-12T01:06:27.696Z,7.93
2023-03-12T01:08:56.784Z,9.07
2023-03-12T01:11:24.642Z,8.33
2023-03-12T01:13:52.253Z,9.50
2023-03-12T01:16:19.995Z,13.53
2023-03-12T01:18:47.692Z,10.40
2023-03-12T01:21:15.339Z,7.30
2023-03-12T01:23:43.046Z,9.73
2023-03-12T01:26:12.173Z,8.57
2023-03-12T01:28:39.856Z,8.47
2023-03-12T01:31:08.801Z,9.97
2023-03-12T01:36:04.181Z,11.23
2023-03-12T01:38:31.886Z,7.05
2023-03-12T01:40:59.745Z,12.13
2023-03-12T01:43:32.334Z,11.13
2023-03-12T01:46:22.682Z,6.43
2023-03-12T01:48:54.883Z,7.90
2023-03-12T01:51:23.553Z,10.30
2023-03-12T01:53:54.184Z,7.43
2023-03-12T01:56:22.849Z,10.70
2023-03-12T01:58:55.525Z,11.57
2023-03-12T02:01:23.886Z,9.03
2023-03-12T02:03:54.754Z,9.30
2023-03-12T02:06:29.692Z,12.23
2023-03-12T02:08:59.581Z,8.80
2023-03-12T02:11:27.409Z,7.50
2023-03-12T02:13:56.646Z,7.33
2023-03-12T02:16:24.464Z,10.27
2023-03-12T02:18:53.834Z,9.27
2023-03-12T02:21:24.572Z,10.37
2023-03-12T02:23:58.563Z,11.00
2023-03-12T02:26:30.001Z,12.23
2023-03-12T02:29:00.296Z,9.63
2023-03-12T02:31:33.836Z,9.40
2023-03-12T02:34:01.611Z,8.47
2023-03-12T02:36:29.268Z,7.50
2023-03-12T02:38:58.142Z,11.47
2023-03-12T02:44:02.973Z,8.57
2023-03-12T02:46:34.778Z,7.60
2023-03-12T02:49:03.279Z,7.20
2023-03-12T02:51:31.118Z,6.88
2023-03-12T02:53:58.804Z,7.60
2023-03-12T02:56:29.163Z,7.10
2023-03-12T02:58:56.851Z,9.27
2023-03-12T03:01:24.633Z,8.77
2023-03-12T03:03:52.338Z,8.80
2023-03-12T03:06:20.152Z,7.60
2023-03-12T03:08:48.005Z,8.57
2023-03-12T03:11:15.686Z,10.30
2023-03-12T03:13:45.191Z,6.40
2023-03-12T03:16:13.581Z,6.47
2023-03-12T03:18:41.299Z,9.20
2023-03-12T03:21:10.790Z,8.00
2023-03-12T03:23:38.726Z,8.47
2023-03-12T03:26:06.408Z,6.88
2023-03-12T03:28:34.180Z,7.07
2023-03-12T03:31:03.266Z,8.50
2023-03-12T03:33:32.903Z,5.70
2023-03-12T03:36:01.477Z,4.73
2023-03-12T03:38:30.436Z,10.95
2023-03-12T03:43:26.451Z,5.82
2023-03-12T03:45:58.070Z,6.15
2023-03-12T03:48:27.205Z,10.73
2023-03-12T03:50:54.923Z,7.10
2023-03-12T03:53:22.668Z,5.97
2023-03-12T03:55:50.291Z,8.73
2023-03-12T03:58:18.060Z,6.60
2023-03-12T04:00:46.598Z,7.53
2023-03-12T04:03:14.922Z,8.65
2023-03-12T04:05:45.186Z,8.73
2023-03-12T04:08:13.067Z,4.80
2023-03-12T04:10:41.650Z,6.90
2023-03-12T04:13:09.427Z,6.63
2023-03-12T04:15:37.070Z,7.80
2023-03-12T04:18:04.902Z,6.70
2023-03-12T04:20:32.669Z,6.93
2023-03-12T04:23:01.747Z,7.33
2023-03-12T04:25:29.469Z,8.23
2023-03-12T04:27:57.154Z,6.23
2023-03-12T04:30:24.820Z,7.17
2023-03-12T04:32:52.486Z,9.43
2023-03-12T04:35:20.368Z,6.80
2023-03-12T04:37:48.080Z,10.50
2023-03-12T04:40:19.191Z,8.77
2023-03-12T04:42:46.963Z,8.30
2023-03-12T04:45:15.130Z,9.13
2023-03-12T04:47:42.811Z,5.47
2023-03-12T04:50:11.894Z,7.90
2023-03-12T04:52:40.081Z,7.73
2023-03-12T04:55:09.196Z,7.20
2023-03-12T04:57:38.198Z,6.17
2023-03-12T05:00:10.358Z,8.17
2023-03-12T05:02:38.649Z,11.03
2023-03-12T05:05:07.133Z,11.50
2023-03-12T05:07:36.080Z,8.45
2023-03-12T05:10:04.382Z,8.80
2023-03-12T05:12:32.083Z,7.50
2023-03-12T05:15:01.211Z,9.87
2023-03-12T05:17:28.854Z,10.30
2023-03-12T05:19:56.553Z,12.53
2023-03-12T05:22:24.265Z,10.93
2023-03-12T05:24:51.921Z,10.43
2023-03-12T05:27:20.120Z,7.83
2023-03-12T05:29:47.795Z,5.88
2023-03-12T05:32:16.894Z,7.60
2023-03-12T05:34:44.547Z,8.30
2023-03-12T05:37:12.277Z,8.83
2023-03-12T05:39:46.569Z,9.13
2023-03-12T05:42:14.889Z,9.40
2023-03-12T05:44:43.326Z,9.57
2023-03-12T05:47:11.014Z,10.20
2023-03-12T05:49:40.152Z,9.63
2023-03-12T05:52:08.009Z,9.03
2023-03-12T05:54:35.649Z,11.23
2023-03-12T05:57:03.594Z,10.17
2023-03-12T05:59:31.525Z,7.70
2023-03-12T06:01:59.242Z,7.45
2023-03-12T06:04:27.014Z,10.10
2023-03-12T06:06:56.106Z,11.60
2023-03-12T06:09:23.891Z,7.97
2023-03-12T06:11:51.641Z,8.03
2023-03-12T06:14:19.284Z,9.47
2023-03-12T06:16:46.988Z,8.13
2023-03-12T06:19:15.107Z,10.40
2023-03-12T06:21:44.078Z,10.75
2023-03-12T06:26:41.315Z,13.17
2023-03-12T06:29:09.072Z,9.25
2023-03-12T06:31:38.840Z,12.80
2023-03-12T06:34:06.878Z,12.63
2023-03-12T06:36:34.556Z,12.50
2023-03-12T06:39:02.823Z,16.03
2023-03-12T06:41:31.830Z,12.70
2023-03-12T06:44:01.828Z,11.47
2023-03-12T06:46:29.554Z,13.97
2023-03-12T06:48:57.240Z,14.53
2023-03-12T06:51:24.949Z,14.00
2023-03-12T06:53:52.626Z,16.00
2023-03-12T06:56:20.374Z,22.23
2023-03-12T06:58:50.094Z,16.60
2023-03-12T07:01:17.787Z,16.07
2023-03-12T07:03:45.573Z,17.83
2023-03-12T07:06:17.684Z,16.30
2023-03-12T07:08:46.001Z,16.60
2023-03-12T07:11:14.592Z,24.80
2023-03-12T07:13:42.603Z,17.60
2023-03-12T07:16:12.348Z,18.65
2023-03-12T07:18:40.173Z,20.37
2023-03-12T07:21:07.945Z,17.97
2023-03-12T07:23:35.678Z,15.97
2023-03-12T07:26:07.144Z,18.67
2023-03-12T07:28:34.770Z,19.33
2023-03-12T07:31:02.747Z,18.03
2023-03-12T07:33:32.092Z,21.70
2023-03-12T07:36:00.125Z,19.27
2023-03-12T07:38:28.337Z,17.73
2023-03-12T07:40:58.176Z,21.00
2023-03-12T07:43:26.171Z,20.47
2023-03-12T07:45:54.137Z,23.38
2023-03-12T07:48:22.324Z,21.13
2023-03-12T07:50:52.169Z,26.80
2023-03-12T07:53:20.100Z,19.57
2023-03-12T07:55:48.503Z,21.70
2023-03-12T07:58:17.009Z,26.88
2023-03-12T08:00:45.263Z,25.70
2023-03-12T08:03:13.545Z,26.77
2023-03-12T08:05:41.534Z,22.98
2023-03-12T08:08:10.825Z,30.88
2023-03-12T08:10:38.906Z,24.57
2023-03-12T08:13:06.786Z,27.92
2023-03-12T08:15:34.934Z,26.55
2023-03-12T08:18:02.685Z,33.35
2023-03-12T08:20:30.430Z,31.37
2023-03-12T08:22:58.318Z,33.00
2023-03-12T08:25:27.406Z,35.50
2023-03-12T08:27:55.668Z,31.00
2023-03-12T08:30:23.661Z,36.17
2023-03-12T08:32:51.339Z,36.13
2023-03-12T08:35:19.026Z,33.17
2023-03-12T08:37:46.736Z,33.17
2023-03-12T08:40:15.097Z,32.37
2023-03-12T08:42:45.504Z,37.08
2023-03-12T08:45:14.287Z,29.90
2023-03-12T08:47:42.079Z,34.28
2023-03-12T08:50:12.267Z,28.93
2023-03-12T08:52:40.409Z,35.77
2023-03-12T08:55:08.881Z,35.33
2023-03-12T08:57:36.631Z,43.60
2023-03-12T09:00:11.311Z,36.53
2023-03-12T09:02:39.244Z,36.37
2023-03-12T09:05:08.214Z,35.38
2023-03-12T09:10:03.793Z,34.67
2023-03-12T09:12:31.547Z,34.55
2023-03-12T09:15:03.534Z,37.97
2023-03-12T09:17:33.760Z,35.73
2023-03-12T09:20:01.465Z,35.13
2023-03-12T09:22:30.380Z,36.83
2023-03-12T09:24:58.184Z,35.87
2023-03-12T09:27:26.033Z,35.93
2023-03-12T09:30:00.537Z,39.55
2023-03-12T09:32:29.170Z,43.80
2023-03-12T09:34:58.349Z,42.28
2023-03-12T09:37:26.341Z,43.77
2023-03-12T09:39:54.802Z,58.08
2023-03-12T09:42:26.348Z,54.17
2023-03-12T09:44:56.654Z,59.17
2023-03-12T09:47:29.980Z,58.90
2023-03-12T09:50:04.620Z,63.97
2023-03-12T09:52:37.013Z,55.73
2023-03-12T09:55:14.878Z,54.37
2023-03-12T09:57:44.143Z,49.25
2023-03-12T10:00:15.504Z,52.93
2023-03-12T10:03:17.525Z,53.60
2023-03-12T10:05:54.209Z,46.43
2023-03-12T10:08:31.082Z,46.37
2023-03-12T10:11:09.523Z,46.03
2023-03-12T10:13:49.880Z,49.47
2023-03-12T10:16:31.860Z,54.57
2023-03-12T10:19:22.058Z,51.37
2023-03-12T10:21:57.007Z,48.10
2023-03-12T10:24:38.052Z,44.47
2023-03-12T10:27:12.538Z,51.57
2023-03-12T10:29:44.773Z,46.20
2023-03-12T10:32:17.484Z,46.67
2023-03-12T10:34:48.308Z,45.70
2023-03-12T10:37:22.189Z,50.53
2023-03-12T10:39:51.288Z,44.20
2023-03-12T10:42:22.065Z,48.40
2023-03-12T10:44:53.694Z,44.67
2023-03-12T10:47:33.844Z,45.67
2023-03-12T10:50:14.860Z,41.23
2023-03-12T10:52:44.524Z,40.63
2023-03-12T10:55:20.540Z,42.47
2023-03-12T10:57:49.221Z,36.90
2023-03-12T11:00:22.523Z,39.85
2023-03-12T11:02:59.893Z,42.07
2023-03-12T11:05:30.818Z,35.93
2023-03-12T11:08:02.016Z,38.00
2023-03-12T11:10:43.493Z,35.40
2023-03-12T11:13:29.737Z,38.90
2023-03-12T11:15:58.828Z,41.80
2023-03-12T11:18:32.077Z,41.67
2023-03-12T11:21:15.363Z,35.87
2023-03-12T11:23:48.292Z,36.27
2023-03-12T11:26:19.467Z,29.03
2023-03-12T11:28:50.012Z,29.33
2023-03-12T11:31:23.755Z,38.17
2023-03-12T11:33:54.494Z,34.23
2023-03-12T11:36:35.768Z,38.90
2023-03-12T11:39:16.248Z,40.00
2023-03-12T11:42:09.283Z,40.77
2023-03-12T11:44:46.766Z,36.10
2023-03-12T11:47:27.772Z,33.67
2023-03-12T11:50:06.218Z,36.23
2023-03-12T11:52:45.594Z,35.08
2023-03-12T11:55:43.539Z,32.27
2023-03-12T11:58:30.088Z,39.28
2023-03-12T12:01:05.060Z,28.63
2023-03-12T12:03:50.246Z,36.50
2023-03-12T12:06:25.844Z,28.40
2023-03-12T12:09:05.770Z,34.43
2023-03-12T12:11:45.224Z,35.40
2023-03-12T12:14:30.478Z,42.40
2023-03-12T12:17:09.434Z,35.93
2023-03-12T12:19:50.843Z,38.67
2023-03-12T12:22:31.925Z,30.87
2023-03-12T12:25:34.679Z,37.10
2023-03-12T12:28:24.647Z,30.53
2023-03-12T12:31:03.467Z,36.03
2023-03-12T12:33:49.448Z,39.73
2023-03-12T12:36:18.604Z,33.23
2023-03-12T12:38:50.809Z,31.87
2023-03-12T12:41:20.704Z,35.47
2023-03-12T12:43:51.345Z,33.43
2023-03-12T12:46:22.390Z,30.03
2023-03-12T12:48:54.451Z,33.03
2023-03-12T12:51:25.854Z,36.33
2023-03-12T12:54:01.674Z,29.20
2023-03-12T12:56:33.723Z,36.37
2023-03-12T12:59:21.428Z,29.03
2023-03-12T13:01:51.475Z,37.80
2023-03-12T13:04:25.175Z,38.27
2023-03-12T13:07:03.164Z,34.63
2023-03-12T13:09:40.805Z,37.38
2023-03-12T13:12:15.381Z,36.90
2023-03-12T13:14:45.784Z,35.23
2023-03-12T13:17:31.810Z,34.13
2023-03-12T13:20:10.733Z,33.13
2023-03-12T13:23:02.971Z,32.37
2023-03-12T13:25:50.930Z,32.87
2023-03-12T13:28:32.805Z,42.47
2023-03-12T13:31:03.129Z,29.50
2023-03-12T13:33:45.442Z,33.03
2023-03-12T13:36:24.449Z,34.73
2023-03-12T13:38:58.881Z,31.37
2023-03-12T13:41:33.408Z,30.70
2023-03-12T13:44:01.841Z,29.30
2023-03-12T13:46:47.029Z,38.03
2023-03-12T13:49:20.947Z,35.77
2023-03-12T13:52:02.651Z,32.70
2023-03-12T13:54:34.660Z,33.63
2023-03-12T13:57:06.338Z,32.47
2023-03-12T13:59:34.216Z,32.23
2023-03-12T14:02:07.199Z,35.30
2023-03-12T14:04:39.422Z,32.03
2023-03-12T14:07:27.874Z,33.67
2023-03-12T14:10:12.429Z,29.88
2023-03-12T14:12:48.969Z,28.57
2023-03-12T14:15:24.828Z,27.50
2023-03-12T14:17:59.456Z,27.47
2023-03-12T14:20:28.011Z,23.60
2023-03-12T14:23:00.306Z,22.50
2023-03-12T14:25:35.544Z,27.83
2023-03-12T14:28:04.634Z,29.83
2023-03-12T14:30:44.035Z,31.67
2023-03-12T14:33:15.879Z,26.47
2023-03-12T14:35:47.707Z,22.37
2023-03-12T14:38:20.899Z,23.80
2023-03-12T14:40:54.261Z,18.33
2023-03-12T14:43:24.558Z,20.20
2023-03-12T14:45:55.768Z,22.53
2023-03-12T14:48:28.661Z,18.87
2023-03-12T14:50:58.229Z,29.50
2023-03-12T14:53:29.543Z,25.30
2023-03-12T14:56:06.659Z,26.50
2023-03-12T14:58:36.743Z,32.77
2023-03-12T15:01:06.538Z,29.77
2023-03-12T15:03:43.104Z,27.37
2023-03-12T15:06:18.975Z,25.83
2023-03-12T15:08:46.856Z,26.13
2023-03-12T15:11:14.707Z,25.52
2023-03-12T15:13:42.520Z,28.35
2023-03-12T15:16:10.351Z,30.70
2023-03-12T15:18:39.660Z,24.30
2023-03-12T15:21:07.650Z,27.43
2023-03-12T15:23:38.689Z,29.63
2023-03-12T15:26:10.835Z,32.47
2023-03-12T15:28:38.894Z,32.23
2023-03-12T15:31:10.207Z,29.25
2023-03-12T15:33:39.855Z,32.67
2023-03-12T15:36:21.398Z,24.77
2023-03-12T15:38:51.711Z,32.63
2023-03-12T15:41:22.334Z,28.87
2023-03-12T15:43:53.851Z,27.63
2023-03-12T15:46:21.871Z,33.43
2023-03-12T15:48:53.775Z,36.63
2023-03-12T15:51:30.928Z,34.93
2023-03-12T15:54:04.304Z,32.37
2023-03-12T15:56:35.503Z,32.87
2023-03-12T15:59:06.780Z,33.13
2023-03-12T16:01:46.125Z,35.97
2023-03-12T16:04:15.207Z,30.83
2023-03-12T16:06:44.249Z,30.23
2023-03-12T16:09:16.903Z,29.87
2023-03-12T16:11:45.113Z,34.87
2023-03-12T16:14:18.596Z,33.15
2023-03-12T16:16:46.843Z,27.40
2023-03-12T16:19:18.363Z,27.67
2023-03-12T16:21:46.899Z,41.43
2023-03-12T16:24:16.505Z,24.77
2023-03-12T16:26:49.645Z,35.00
2023-03-12T16:29:19.345Z,31.90
2023-03-12T16:31:52.625Z,35.83
2023-03-12T16:34:21.819Z,32.53
2023-03-12T16:36:49.522Z,29.07
2023-03-12T16:39:18.813Z,33.90
2023-03-12T16:41:47.138Z,28.23
2023-03-12T16:44:18.933Z,36.17
2023-03-12T16:46:46.821Z,35.77
2023-03-12T16:49:16.385Z,35.33
2023-03-12T16:51:45.424Z,33.80
2023-03-12T16:54:13.190Z,34.87
2023-03-12T16:56:44.562Z,33.57
2023-03-12T16:59:25.782Z,29.57
2023-03-12T17:01:54.288Z,31.53
2023-03-12T17:04:21.988Z,29.23
2023-03-12T17:06:51.126Z,28.77
2023-03-12T17:09:20.512Z,33.77
2023-03-12T17:11:51.463Z,30.80
2023-03-12T17:14:21.949Z,31.40
2023-03-12T17:16:50.248Z,38.30
2023-03-12T17:19:18.121Z,34.88
2023-03-12T17:21:46.650Z,35.72
2023-03-12T17:24:15.767Z,33.95
2023-03-12T17:26:45.348Z,33.13
2023-03-12T17:29:13.200Z,45.47
2023-03-12T17:31:40.933Z,42.50
2023-03-12T17:34:08.894Z,43.73
2023-03-12T17:36:37.765Z,38.50
2023-03-12T17:39:05.880Z,44.73
2023-03-12T17:41:34.957Z,74.93
2023-03-12T17:44:03.803Z,63.40
2023-03-12T17:46:32.201Z,77.37
2023-03-12T17:49:00.493Z,42.65
2023-03-12T17:51:29.405Z,37.90
2023-03-12T17:53:57.712Z,37.93
2023-03-12T17:56:25.666Z,29.27
2023-03-12T17:58:54.884Z,30.42
2023-03-12T18:01:22.903Z,26.30
2023-03-12T18:03:51.258Z,26.67
2023-03-12T18:06:19.945Z,28.42
2023-03-12T18:11:15.624Z,17.53
2023-03-12T18:13:43.398Z,20.48
2023-03-12T18:16:12.515Z,22.13
2023-03-12T18:18:40.392Z,19.70
2023-03-12T18:21:08.080Z,19.35
2023-03-12T18:23:35.758Z,21.47
2023-03-12T18:26:03.883Z,16.13
2023-03-12T18:28:31.779Z,20.25
2023-03-12T18:30:59.494Z,17.17
2023-03-12T18:33:28.583Z,17.03
2023-03-12T18:35:56.400Z,21.87
2023-03-12T18:38:24.220Z,12.85
2023-03-12T18:40:51.937Z,20.50
2023-03-12T18:43:21.753Z,15.77
2023-03-12T18:45:51.198Z,17.33
2023-03-12T18:48:19.038Z,16.90
2023-03-12T18:50:48.172Z,20.80
2023-03-12T18:53:16.021Z,16.83
2023-03-12T18:55:52.366Z,33.70
2023-03-12T18:58:20.298Z,21.37
2023-03-12T19:00:48.433Z,18.95
2023-03-12T19:03:16.291Z,20.02
2023-03-12T19:05:44.022Z,16.67
2023-03-12T19:08:13.603Z,21.30
2023-03-12T19:10:42.801Z,16.53
2023-03-12T19:13:11.307Z,21.33
2023-03-12T19:15:40.130Z,24.50
2023-03-12T19:20:36.503Z,37.93
2023-03-12T19:25:33.322Z,19.30
2023-03-12T19:28:01.082Z,18.97
2023-03-12T19:30:30.675Z,18.27
2023-03-12T19:32:58.574Z,17.70
2023-03-12T19:35:26.470Z,13.00
2023-03-12T19:37:54.475Z,24.63
2023-03-12T19:40:22.667Z,19.08
2023-03-12T19:42:51.819Z,24.48
2023-03-12T19:45:19.588Z,25.20
2023-03-12T19:47:47.371Z,22.70
2023-03-12T19:50:14.996Z,19.00
2023-03-12T19:52:42.679Z,14.50
2023-03-12T19:55:11.853Z,22.23
2023-03-12T19:57:40.685Z,12.30
2023-03-12T20:02:40.806Z,16.97
2023-03-12T20:05:09.919Z,13.57
2023-03-12T20:07:37.589Z,17.27
2023-03-12T20:10:06.446Z,16.83
2023-03-12T20:15:01.992Z,19.70
2023-03-12T20:17:31.327Z,21.53
2023-03-12T20:19:59.065Z,22.97
2023-03-12T20:22:26.918Z,18.20
2023-03-12T20:24:55.070Z,27.00
2023-03-12T20:27:22.814Z,27.85
2023-03-12T20:29:51.010Z,26.27
2023-03-12T20:32:19.457Z,15.00
2023-03-12T20:34:48.731Z,28.50
2023-03-12T20:37:17.977Z,19.33
2023-03-12T20:39:45.792Z,22.53
2023-03-12T20:42:13.645Z,21.73
2023-03-12T20:44:41.379Z,21.03
2023-03-12T20:47:09.139Z,20.60
2023-03-12T20:49:37.044Z,19.40
2023-03-12T20:52:06.258Z,21.00
2023-03-12T20:54:34.002Z,20.13
2023-03-12T20:57:01.769Z,22.97
2023-03-12T20:59:29.455Z,29.10
2023-03-12T21:01:57.373Z,22.65
2023-03-12T21:04:25.321Z,20.40
2023-03-12T21:06:53.151Z,22.40
2023-03-12T21:09:24.176Z,21.53
2023-03-12T21:11:51.800Z,23.73
2023-03-12T21:14:19.517Z,22.73
2023-03-12T21:16:47.233Z,26.17
2023-03-12T21:19:15.043Z,28.60
2023-03-12T21:21:42.999Z,28.40
2023-03-12T21:24:10.881Z,32.85
2023-03-12T21:26:40.024Z,30.50
2023-03-12T21:29:07.720Z,30.90
2023-03-12T21:31:35.744Z,22.53
2023-03-12T21:34:03.638Z,27.58
2023-03-12T21:36:31.389Z,29.55
2023-03-12T21:39:01.784Z,31.80
2023-03-12T21:41:29.556Z,29.27
2023-03-12T21:44:02.017Z,26.47
2023-03-12T21:46:30.535Z,27.70
2023-03-12T21:48:59.042Z,24.65
2023-03-12T21:51:26.992Z,25.90
2023-03-12T21:53:55.518Z,30.05
2023-03-12T21:56:25.276Z,24.65
2023-03-12T21:58:53.034Z,19.07
2023-03-12T22:01:22.122Z,30.13
2023-03-12T22:03:49.910Z,27.90
2023-03-12T22:06:18.095Z,29.53
2023-03-12T22:08:48.191Z,25.30
2023-03-12T22:11:16.889Z,24.20
2023-03-12T22:13:44.947Z,24.45
2023-03-12T22:16:14.097Z,34.03
2023-03-12T22:18:45.153Z,25.20
2023-03-12T22:21:16.012Z,27.30
2023-03-12T22:23:43.987Z,28.93
2023-03-12T22:26:11.609Z,29.88
2023-03-12T22:28:39.459Z,36.53
2023-03-12T22:31:09.425Z,34.80
2023-03-12T22:33:37.643Z,31.87
2023-03-12T22:36:09.107Z,36.15
2023-03-12T22:38:37.595Z,30.80
2023-03-12T22:41:16.003Z,28.80
2023-03-12T22:43:44.207Z,41.63
2023-03-12T22:46:12.168Z,34.67
2023-03-12T22:48:39.870Z,33.92
2023-03-12T22:51:09.024Z,40.87
2023-03-12T22:53:37.586Z,35.20
2023-03-12T22:56:07.587Z,37.60
2023-03-12T22:58:35.658Z,36.70
2023-03-12T23:01:05.373Z,31.25
2023-03-12T23:03:34.644Z,32.43
2023-03-12T23:06:03.017Z,36.80
2023-03-12T23:08:32.110Z,39.60
2023-03-12T23:11:01.851Z,35.87
2023-03-12T23:13:32.242Z,36.13
2023-03-12T23:16:02.358Z,31.37
2023-03-12T23:18:30.086Z,37.70
2023-03-12T23:21:01.697Z,32.93
2023-03-12T23:23:29.762Z,32.47
2023-03-12T23:26:01.117Z,35.80
2023-03-12T23:28:30.008Z,36.13
2023-03-12T23:30:59.260Z,28.13
2023-03-12T23:33:27.586Z,34.13
2023-03-12T23:35:56.688Z,36.40
2023-03-12T23:38:24.835Z,32.23
2023-03-12T23:40:52.656Z,32.60
2023-03-12T23:43:21.705Z,38.30
2023-03-12T23:45:56.722Z,42.87
2023-03-12T23:48:24.614Z,34.47
2023-03-12T23:50:52.248Z,28.90
2023-03-12T23:53:20.030Z,33.00
2023-03-12T23:55:56.188Z,37.73
2023-03-12T23:58:25.813Z,31.90
